Aérodrome :







RETROUVEZ-NOUS SUR...

 
LOGIN :

S'inscrire | Disclaimer

   EN    FR    IT 

 









Légende :    VFR   VFR Marginal   IFR   IFR Intensif   IFR Très Intensif
Visi : 
Plafond : 
>= 8 km
>= 3000ft
5 à 8 km
1000 à 3000 ft
1500m à 5 km
500 à 1000 ft
800 à 1500m
200 à 500 ft
< 800m
< 200 ft
Symboles :   Orages  Brouillard  Fortes neiges  Fortes précipitations  Vent > 20 kt






- Altitude de l'aérodrome : 95 ft
- Code IATA : GEO


SYCJ - Cheddi Jagan Int.

DERNIER METAR :
  • 241700Z 08012KT 9999 BKN022 SCT040 29/23 Q1013 NOSIG

METARs EXPIRÉS :
  • 241600Z 05010KT 9999 SCT021 BKN040 29/22 Q1013 NOSIG
  • 241500Z 05010KT 9999 SCT021 BKN040 29/23 Q1014 NOSIG

TAF TAF SYCJ
Valide du 24 à 18h jusqu'au 25 à 18h UTC


241700Z 2418/2518 05010KT 9999 SCT020 SCT039
BECMG 2500/2502 05006KT 9999 FEW015
BECMG 2510/2512 06012KT 9999 BKN019



MET'MAP, la Météo Aéronautique d'un coup d'oeil ! - Copyright ORBIFLY Décembre 2007 - Disclaimer

ORBIFLY MET'MAP TEAM :

Programmation & Développement : Alexandra Zaïnal
Sur une idée originale de : Baudouin d'Aumeries
Assistance à la programmation : Marc-Olivier Méhu
Soutien technique & logistique : Manuel Goepfert

Contact : metmap@orbifly.com




SOURCES & CREDITS :

   NOAA